Time;durP1;ratioP1;P1;durP2;ratioP2;P2;SDS_P1;SDS_P2;PMS_P1;PMS_P2;Temp;Humidity;BMP_temperature;BMP_pressure;BME280_temperature;BME280_humidity;BME280_pressure;Samples;Min_cycle;Max_cycle;Signal;HPM_P1;HPM_P2
2022/04/29 00:02:15;;;;;;;;;18.00;17.00;;;;;21.94;41.39;101965.66;109531;1270;18853;-50
2022/04/29 00:04:43;;;;;;;;;18.33;15.00;;;;;21.93;41.35;101965.21;109553;1270;19065;-50
2022/04/29 00:07:10;;;;;;;;;16.67;15.67;;;;;21.92;41.54;101964.52;109595;1270;18208;-52
2022/04/29 00:09:37;;;;;;;;;14.67;14.00;;;;;21.94;41.35;101962.58;109495;1270;18718;-51
2022/04/29 00:12:05;;;;;;;;;16.00;15.33;;;;;21.93;41.39;101960.79;109523;1270;18824;-49
2022/04/29 00:14:32;;;;;;;;;19.33;16.00;;;;;21.93;41.52;101959.38;109781;1265;22076;-50
2022/04/29 00:16:59;;;;;;;;;15.00;14.00;;;;;21.94;41.36;101957.10;110193;1264;18835;-50
2022/04/29 00:19:26;;;;;;;;;15.33;14.67;;;;;21.93;41.30;101955.38;110203;1265;18790;-48
2022/04/29 00:21:54;;;;;;;;;15.33;14.00;;;;;21.93;41.40;101952.96;110204;1265;18196;-51
2022/04/29 00:24:21;;;;;;;;;15.67;14.00;;;;;21.94;41.45;101954.58;110171;1265;22043;-49
2022/04/29 00:26:48;;;;;;;;;13.67;13.33;;;;;21.95;41.53;101955.39;110185;1265;18702;-49
2022/04/29 00:29:16;;;;;;;;;15.00;13.50;;;;;21.94;41.37;101955.07;110228;1265;19494;-49
2022/04/29 00:31:44;;;;;;;;;18.00;16.33;;;;;21.94;41.30;101952.39;110206;1265;22067;-49
2022/04/29 00:34:12;;;;;;;;;17.00;15.67;;;;;21.93;41.23;101951.52;110256;1265;18828;-49
2022/04/29 00:36:39;;;;;;;;;15.33;14.00;;;;;21.91;41.40;101951.41;110187;1264;18962;-49
2022/04/29 00:39:06;;;;;;;;;16.00;15.00;;;;;21.91;41.44;101952.98;110214;1264;18785;-49
2022/04/29 00:41:33;;;;;;;;;16.67;15.00;;;;;21.90;41.56;101948.41;110199;1265;18865;-50
2022/04/29 00:44:01;;;;;;;;;17.00;15.00;;;;;21.89;41.38;101949.80;110211;1265;19656;-49
2022/04/29 00:46:28;;;;;;;;;15.50;14.00;;;;;21.87;41.54;101949.15;110197;1265;22900;-49
2022/04/29 00:48:56;;;;;;;;;21.00;17.33;;;;;21.87;41.39;101946.64;110229;1265;18697;-50
2022/04/29 00:51:23;;;;;;;;;18.33;16.00;;;;;21.88;41.49;101951.11;110203;1265;18265;-49
2022/04/29 00:53:50;;;;;;;;;18.00;17.00;;;;;21.87;41.50;101949.52;110209;1265;20686;-52
2022/04/29 00:56:17;;;;;;;;;17.00;16.00;;;;;21.86;41.62;101946.92;110123;1265;19396;-53
2022/04/29 00:58:45;;;;;;;;;16.00;14.50;;;;;21.86;41.42;101945.11;110214;1264;18842;-48
2022/04/29 01:01:12;;;;;;;;;15.00;14.67;;;;;21.86;41.48;101942.39;110255;1265;18690;-49
2022/04/29 01:03:40;;;;;;;;;16.67;14.33;;;;;21.87;41.42;101943.05;110182;1265;18711;-49
2022/04/29 01:06:07;;;;;;;;;18.33;18.00;;;;;21.86;41.54;101947.70;110225;1265;18351;-49
2022/04/29 01:08:34;;;;;;;;;17.67;14.67;;;;;21.86;41.45;101949.11;110203;1264;21528;-50
2022/04/29 01:11:02;;;;;;;;;16.33;15.00;;;;;21.86;41.55;101951.49;110213;1265;18848;-50
2022/04/29 01:13:29;;;;;;;;;15.00;14.00;;;;;21.87;41.52;101952.73;110129;1265;18313;-49
2022/04/29 01:15:57;;;;;;;;;21.67;21.00;;;;;21.85;41.47;101956.52;110238;1265;18735;-51
2022/04/29 01:18:24;;;;;;;;;18.67;16.00;;;;;21.85;41.38;101954.29;109991;1267;18830;-50
2022/04/29 01:20:52;;;;;;;;;17.00;15.00;;;;;21.84;41.63;101957.19;110036;1265;18203;-49
2022/04/29 01:23:19;;;;;;;;;14.33;14.33;;;;;21.85;41.44;101953.20;110213;1265;18770;-48
2022/04/29 01:25:47;;;;;;;;;17.33;16.33;;;;;21.86;41.52;101950.38;110216;1265;18749;-50
2022/04/29 01:28:14;;;;;;;;;16.33;15.67;;;;;21.86;41.45;101952.05;110203;1265;21909;-50
2022/04/29 01:30:41;;;;;;;;;17.67;17.33;;;;;21.86;41.36;101949.72;110256;1264;18887;-49
2022/04/29 01:33:09;;;;;;;;;18.00;16.00;;;;;21.86;41.58;101949.83;109877;1267;18741;-48
2022/04/29 01:35:36;;;;;;;;;19.67;17.33;;;;;21.87;41.59;101945.80;110254;1264;19215;-47
2022/04/29 01:38:03;;;;;;;;;15.00;14.00;;;;;21.86;41.52;101944.40;110189;1264;21978;-48
2022/04/29 01:40:30;;;;;;;;;19.00;17.33;;;;;21.86;41.41;101942.97;110261;1265;18654;-50
2022/04/29 01:42:58;;;;;;;;;19.00;17.33;;;;;21.85;41.39;101944.13;110198;1265;18166;-50
2022/04/29 01:45:25;;;;;;;;;16.33;15.33;;;;;21.85;41.38;101940.27;110219;1265;18681;-50
2022/04/29 01:47:52;;;;;;;;;18.33;18.00;;;;;21.84;41.45;101935.48;110194;1265;22139;-53
2022/04/29 01:50:19;;;;;;;;;15.00;15.00;;;;;21.85;41.41;101938.46;110183;1265;18364;-50
2022/04/29 01:52:47;;;;;;;;;20.67;18.33;;;;;21.85;41.49;101940.10;110178;1265;21154;-49
2022/04/29 01:55:14;;;;;;;;;20.00;18.00;;;;;21.85;41.35;101940.47;110242;1265;19360;-49
2022/04/29 01:57:41;;;;;;;;;22.00;17.67;;;;;21.84;41.51;101935.14;110101;1267;26555;-49
2022/04/29 02:00:10;;;;;;;;;18.67;18.67;;;;;21.84;41.34;101936.95;110097;1264;18685;-48
2022/04/29 02:02:37;;;;;;;;;18.67;17.67;;;;;21.84;41.25;101941.31;110185;1264;18870;-50
2022/04/29 02:05:05;;;;;;;;;15.50;14.00;;;;;21.85;41.31;101942.86;110176;1265;18480;-50
2022/04/29 02:07:32;;;;;;;;;19.00;17.00;;;;;21.84;41.45;101943.13;110186;1265;22072;-50
2022/04/29 02:09:59;;;;;;;;;16.67;14.67;;;;;21.85;41.34;101944.33;110112;1267;18722;-48
2022/04/29 02:12:26;;;;;;;;;17.67;15.00;;;;;21.84;41.43;101945.48;110169;1267;18203;-48
2022/04/29 02:14:53;;;;;;;;;16.67;16.67;;;;;21.83;41.40;101939.27;110126;1267;21561;-48
2022/04/29 02:17:21;;;;;;;;;18.00;17.00;;;;;21.83;41.52;101939.44;110177;1267;18683;-50
2022/04/29 02:19:48;;;;;;;;;19.67;16.33;;;;;21.83;41.36;101942.39;110224;1265;18455;-48
2022/04/29 02:22:16;;;;;;;;;16.67;15.67;;;;;21.82;41.40;101939.85;110239;1265;18846;-49
2022/04/29 02:24:43;;;;;;;;;14.00;14.00;;;;;21.83;41.36;101938.73;110198;1265;24309;-50
2022/04/29 02:27:10;;;;;;;;;17.67;16.33;;;;;21.82;41.38;101938.25;110202;1265;18391;-46
2022/04/29 02:29:38;;;;;;;;;14.33;13.33;;;;;21.82;41.48;101938.42;110167;1267;19370;-48
2022/04/29 02:32:05;;;;;;;;;18.00;16.33;;;;;21.81;41.46;101938.17;110217;1264;18736;-50
2022/04/29 02:34:32;;;;;;;;;19.00;17.00;;;;;21.81;41.31;101936.13;110231;1265;18327;-50
2022/04/29 02:36:59;;;;;;;;;17.33;15.00;;;;;21.81;41.28;101936.39;110172;1265;21352;-50
2022/04/29 02:39:26;;;;;;;;;17.50;15.00;;;;;21.81;41.39;101933.86;110208;1264;18713;-51
2022/04/29 02:41:54;;;;;;;;;15.33;14.00;;;;;21.81;41.33;101934.04;110172;1268;18901;-51
2022/04/29 02:44:22;;;;;;;;;17.00;15.00;;;;;21.81;41.26;101935.58;110224;1265;18816;-50
2022/04/29 02:49:30;;;;;;;;;21.00;18.00;;;;;21.81;41.33;101935.84;109953;1264;19125;-52
2022/04/29 02:51:57;;;;;;;;;18.00;18.00;;;;;21.83;41.42;101936.02;110160;1265;18810;-48
2022/04/29 02:54:24;;;;;;;;;18.67;16.67;;;;;21.83;41.16;101935.45;110142;1264;18796;-50
2022/04/29 02:56:52;;;;;;;;;17.67;15.67;;;;;21.82;41.37;101936.05;110170;1265;19381;-47
2022/04/29 02:59:19;;;;;;;;;15.00;14.00;;;;;21.83;41.32;101936.77;110190;1265;18666;-50
2022/04/29 03:01:46;;;;;;;;;18.67;18.00;;;;;21.82;41.14;101941.49;110201;1265;18730;-50
2022/04/29 03:04:13;;;;;;;;;20.00;17.50;;;;;21.81;41.19;101941.47;110230;1265;18345;-49
2022/04/29 03:06:40;;;;;;;;;15.00;15.00;;;;;21.80;41.17;101939.36;110183;1265;19315;-49
2022/04/29 03:09:08;;;;;;;;;15.33;14.00;;;;;21.80;41.17;101937.58;110252;1264;19549;-49
2022/04/29 03:11:35;;;;;;;;;15.67;14.33;;;;;21.81;41.34;101937.48;110188;1264;18224;-50
2022/04/29 03:14:02;;;;;;;;;14.67;14.00;;;;;21.80;41.33;101937.34;110208;1265;18688;-47
2022/04/29 03:16:30;;;;;;;;;16.67;16.00;;;;;21.81;41.25;101938.20;110235;1265;18736;-51
2022/04/29 03:18:57;;;;;;;;;17.00;15.00;;;;;21.81;41.21;101940.21;110199;1265;20612;-50
2022/04/29 03:21:24;;;;;;;;;14.00;13.67;;;;;21.80;41.22;101937.68;110226;1265;18995;-50
2022/04/29 03:23:51;;;;;;;;;17.50;14.00;;;;;21.81;41.10;101941.67;110201;1267;18788;-50
2022/04/29 03:26:19;;;;;;;;;18.00;15.00;;;;;21.79;41.24;101936.41;110302;1264;18236;-49
2022/04/29 03:28:46;;;;;;;;;17.50;15.00;;;;;21.79;41.29;101939.69;110189;1265;18793;-49
2022/04/29 03:31:13;;;;;;;;;15.33;14.00;;;;;21.78;41.09;101942.31;110221;1265;18677;-53
2022/04/29 03:33:40;;;;;;;;;14.00;13.33;;;;;21.79;41.36;101941.70;110154;1264;18472;-48
2022/04/29 03:36:09;;;;;;;;;17.00;15.00;;;;;21.79;41.32;101941.67;110181;1264;18848;-49
2022/04/29 03:38:36;;;;;;;;;17.00;14.50;;;;;21.79;41.34;101940.95;110215;1265;18742;-48
2022/04/29 03:41:04;;;;;;;;;13.33;13.00;;;;;21.79;41.10;101940.98;110225;1265;18231;-50
2022/04/29 03:43:31;;;;;;;;;18.33;17.00;;;;;21.78;41.21;101939.24;110232;1265;18684;-51
2022/04/29 03:45:59;;;;;;;;;14.00;14.00;;;;;21.78;41.20;101942.14;110223;1265;18681;-47
2022/04/29 03:48:26;;;;;;;;;17.00;14.00;;;;;21.78;41.21;101942.72;110235;1265;18201;-50
2022/04/29 03:50:53;;;;;;;;;15.00;14.00;;;;;21.79;41.13;101940.27;110255;1265;18966;-49
2022/04/29 03:53:21;;;;;;;;;13.67;13.67;;;;;21.78;41.18;101943.74;110204;1265;19009;-49
2022/04/29 03:55:48;;;;;;;;;17.00;15.00;;;;;21.78;41.18;101939.96;110181;1265;21220;-49
2022/04/29 03:58:15;;;;;;;;;14.00;13.00;;;;;21.79;41.20;101944.61;110172;1264;19564;-49
2022/04/29 04:00:42;;;;;;;;;17.00;15.33;;;;;21.78;41.26;101943.23;110210;1264;21515;-49
2022/04/29 04:03:10;;;;;;;;;17.67;16.00;;;;;21.78;41.11;101940.64;110190;1265;18281;-49
2022/04/29 04:06:49;;;;;;;;;14.33;13.33;;;;;21.78;41.23;101946.09;110176;1266;18970;-50
2022/04/29 04:08:25;;;;;;;;;16.33;14.67;;;;;21.79;41.28;101947.13;110210;1265;18755;-49
2022/04/29 04:10:52;;;;;;;;;19.00;17.00;;;;;21.80;41.14;101947.20;110193;1265;19301;-49
2022/04/29 04:13:19;;;;;;;;;14.00;14.00;;;;;21.81;41.16;101948.94;110252;1265;21582;-49
2022/04/29 04:15:46;;;;;;;;;14.00;14.00;;;;;21.81;40.97;101947.68;110197;1265;18652;-50
2022/04/29 04:18:14;;;;;;;;;14.33;14.00;;;;;21.80;41.14;101949.17;110155;1266;18402;-50
2022/04/29 04:20:41;;;;;;;;;15.00;14.00;;;;;21.80;40.98;101945.59;110175;1265;18862;-48
2022/04/29 04:23:09;;;;;;;;;14.00;14.00;;;;;21.79;41.21;101950.36;110198;1265;18718;-49
2022/04/29 04:25:36;;;;;;;;;14.00;13.00;;;;;21.81;41.07;101948.94;110213;1265;18338;-50
2022/04/29 04:28:03;;;;;;;;;15.00;13.00;;;;;21.82;41.04;101953.59;110181;1264;21843;-49
2022/04/29 04:30:30;;;;;;;;;14.00;13.00;;;;;21.80;41.09;101955.73;110153;1266;18840;-49
2022/04/29 04:32:58;;;;;;;;;17.67;15.00;;;;;21.80;41.11;101959.01;110203;1265;18289;-49
2022/04/29 04:35:25;;;;;;;;;15.33;14.00;;;;;21.81;41.04;101954.57;110261;1265;22125;-50
2022/04/29 04:37:52;;;;;;;;;13.67;13.00;;;;;21.81;41.08;101962.16;110251;1265;18824;-49
2022/04/29 04:40:19;;;;;;;;;17.00;15.00;;;;;21.82;41.01;101962.13;110188;1265;18251;-50
2022/04/29 04:42:47;;;;;;;;;13.67;13.00;;;;;21.81;40.97;101962.73;110157;1264;19860;-50
2022/04/29 04:45:14;;;;;;;;;13.00;12.67;;;;;21.81;41.12;101964.60;110203;1265;22560;-49
2022/04/29 04:47:41;;;;;;;;;17.33;15.00;;;;;21.82;41.01;101974.48;110197;1268;18182;-51
2022/04/29 04:50:09;;;;;;;;;13.50;13.00;;;;;21.82;40.98;101978.81;110181;1264;19123;-49
2022/04/29 04:52:36;;;;;;;;;15.00;13.67;;;;;21.82;40.94;101979.95;110219;1265;20132;-49
2022/04/29 04:55:04;;;;;;;;;15.67;13.67;;;;;21.83;40.83;101982.79;110148;1265;18312;-50
2022/04/29 04:57:31;;;;;;;;;16.33;13.67;;;;;21.83;40.86;101983.50;110204;1265;18709;-50
2022/04/29 04:59:58;;;;;;;;;13.50;13.00;;;;;21.84;40.80;101985.73;110220;1264;18769;-49
2022/04/29 05:02:26;;;;;;;;;13.00;13.00;;;;;21.84;40.90;101988.06;110244;1264;19548;-50
2022/04/29 05:04:53;;;;;;;;;13.00;12.33;;;;;21.85;40.88;101987.66;110259;1265;18671;-48
2022/04/29 05:07:20;;;;;;;;;13.33;12.00;;;;;21.88;41.14;101987.31;110216;1265;18668;-49
2022/04/29 05:09:47;;;;;;;;;13.67;13.67;;;;;21.94;41.20;101990.61;110158;1264;19307;-48
2022/04/29 05:12:15;;;;;;;;;16.00;14.33;;;;;21.94;41.28;101994.59;109990;1265;18842;-48
2022/04/29 05:14:42;;;;;;;;;14.00;13.67;;;;;21.96;41.47;101998.76;110087;1265;18788;-47
2022/04/29 05:17:09;;;;;;;;;17.00;14.00;;;;;22.06;41.80;101999.73;110165;1264;20902;-47
2022/04/29 05:19:37;;;;;;;;;15.33;13.00;;;;;22.13;41.98;102001.42;110224;1265;18833;-51
2022/04/29 05:22:04;;;;;;;;;18.33;14.33;;;;;22.18;42.09;102003.64;110119;1265;18874;-45
2022/04/29 05:24:31;;;;;;;;;20.33;17.00;;;;;22.23;41.94;102010.06;110125;1267;18387;-48
2022/04/29 05:26:59;;;;;;;;;13.33;13.00;;;;;22.25;41.88;102016.40;110183;1264;18709;-48
2022/04/29 05:29:26;;;;;;;;;18.33;17.00;;;;;22.27;41.91;102016.55;110048;1266;18822;-48
2022/04/29 05:31:53;;;;;;;;;17.00;14.50;;;;;22.28;41.92;102018.59;110109;1268;18368;-49
2022/04/29 05:34:21;;;;;;;;;17.33;14.00;;;;;22.27;41.89;102025.33;110117;1267;22065;-46
2022/04/29 05:36:48;;;;;;;;;16.67;15.67;;;;;22.25;41.97;102025.71;109996;1267;18762;-48
2022/04/29 05:42:15;;;;;;;;;18.00;16.67;;;;;22.32;42.30;102023.55;110122;1267;19165;-48
2022/04/29 05:44:42;;;;;;;;;16.00;13.50;;;;;22.37;42.19;102022.42;110132;1268;18887;-48
2022/04/29 05:47:10;;;;;;;;;13.00;13.00;;;;;22.42;42.46;102029.25;110130;1267;20577;-47
2022/04/29 05:49:37;;;;;;;;;13.33;13.00;;;;;22.46;42.54;102028.64;110198;1267;18883;-49
2022/04/29 05:52:04;;;;;;;;;14.33;14.00;;;;;22.45;42.56;102028.73;110046;1267;18914;-47
2022/04/29 05:54:31;;;;;;;;;18.00;17.00;;;;;22.43;42.29;102029.34;110140;1267;18247;-49
2022/04/29 05:56:59;;;;;;;;;20.00;18.33;;;;;22.41;41.85;102034.78;110115;1267;18558;-50
2022/04/29 05:59:26;;;;;;;;;15.00;14.33;;;;;22.42;41.85;102032.00;110032;1267;18752;-50
2022/04/29 06:01:53;;;;;;;;;18.00;17.00;;;;;22.41;41.66;102032.42;109944;1267;18488;-47
2022/04/29 06:04:20;;;;;;;;;18.00;15.00;;;;;22.40;41.56;102032.30;110090;1267;18916;-49
2022/04/29 06:06:48;;;;;;;;;17.00;15.00;;;;;22.44;41.77;102035.02;110090;1267;19580;-50
2022/04/29 06:09:15;;;;;;;;;13.33;13.33;;;;;22.46;41.53;102033.73;110098;1267;21490;-48
2022/04/29 06:11:42;;;;;;;;;18.00;15.00;;;;;22.48;41.66;102033.14;110020;1267;19558;-49
2022/04/29 06:14:09;;;;;;;;;16.00;15.00;;;;;22.51;41.67;102036.73;110097;1268;18754;-48
2022/04/29 06:16:36;;;;;;;;;14.00;14.00;;;;;22.53;41.58;102036.12;110173;1267;18190;-49
2022/04/29 06:19:04;;;;;;;;;13.50;13.00;;;;;22.55;41.24;102033.37;109863;1267;249652;-50
2022/04/29 06:21:31;;;;;;;;;15.33;14.67;;;;;22.54;41.36;102037.23;110107;1267;23002;-49
2022/04/29 06:23:58;;;;;;;;;16.33;14.67;;;;;22.59;41.32;102035.79;110108;1267;18278;-50
2022/04/29 06:26:25;;;;;;;;;15.00;13.67;;;;;22.66;41.33;102038.76;110041;1267;18946;-54
2022/04/29 06:28:53;;;;;;;;;14.50;14.00;;;;;22.69;40.47;102040.13;110008;1267;21612;-53
2022/04/29 06:31:20;;;;;;;;;20.00;16.67;;;;;22.59;39.48;102044.45;110115;1267;18252;-50
2022/04/29 06:33:48;;;;;;;;;19.00;18.00;;;;;22.58;38.25;102044.27;110121;1268;18829;-52
2022/04/29 06:36:15;;;;;;;;;19.67;17.67;;;;;22.57;37.92;102047.72;110046;1267;19138;-50
2022/04/29 06:38:42;;;;;;;;;18.50;17.50;;;;;22.51;37.34;102044.13;109995;1267;22607;-48
2022/04/29 06:41:09;;;;;;;;;18.00;17.00;;;;;22.44;36.89;102041.77;110050;1268;18896;-49
2022/04/29 06:43:37;;;;;;;;;21.67;16.33;;;;;22.39;36.75;102036.43;110085;1267;18725;-49
2022/04/29 06:46:04;;;;;;;;;15.00;14.33;;;;;22.36;36.26;102036.20;110067;1267;22543;-48
2022/04/29 06:48:31;;;;;;;;;18.00;15.00;;;;;22.33;35.23;102035.79;110071;1267;19012;-50
2022/04/29 06:50:58;;;;;;;;;15.67;14.67;;;;;22.29;34.38;102038.80;110148;1267;19007;-49
2022/04/29 06:53:26;;;;;;;;;16.00;15.00;;;;;22.11;32.94;102034.94;110092;1267;18364;-49
2022/04/29 06:55:53;;;;;;;;;16.33;14.67;;;;;21.81;32.38;102033.22;110098;1267;20397;-49
2022/04/29 06:58:21;;;;;;;;;12.67;12.67;;;;;21.73;32.30;102035.23;110157;1267;22674;-50
2022/04/29 07:00:48;;;;;;;;;15.00;15.00;;;;;21.74;32.46;102040.98;110140;1267;18279;-51
2022/04/29 07:03:15;;;;;;;;;17.00;17.00;;;;;21.76;31.70;102038.45;110072;1267;19929;-49
2022/04/29 07:05:42;;;;;;;;;16.33;14.67;;;;;21.61;30.76;102036.77;110147;1267;18680;-47
2022/04/29 07:08:11;;;;;;;;;14.67;14.33;;;;;21.53;30.36;102039.42;110084;1267;25139;-49
2022/04/29 07:10:38;;;;;;;;;14.50;14.50;;;;;21.49;30.03;102043.07;110156;1267;18567;-49
2022/04/29 07:13:05;;;;;;;;;16.50;14.00;;;;;21.40;29.95;102041.95;110136;1267;18838;-50
2022/04/29 07:15:32;;;;;;;;;14.33;14.00;;;;;21.42;29.84;102041.95;110128;1267;20688;-49
2022/04/29 07:17:59;;;;;;;;;15.67;13.67;;;;;21.54;29.83;102041.83;110103;1267;18892;-48
2022/04/29 07:20:28;;;;;;;;;14.00;13.00;;;;;21.72;29.52;102042.60;110148;1267;18805;-49
2022/04/29 07:22:55;;;;;;;;;13.67;13.67;;;;;21.74;28.39;102036.96;110045;1267;18514;-50
2022/04/29 07:25:23;;;;;;;;;14.50;14.00;;;;;21.52;28.58;102040.54;110184;1268;18864;-51
2022/04/29 07:27:50;;;;;;;;;17.00;15.00;;;;;21.33;28.83;102043.70;110098;1267;18711;-50
2022/04/29 07:30:17;;;;;;;;;15.00;12.67;;;;;21.34;28.85;102044.36;110122;1267;18203;-51
2022/04/29 07:32:44;;;;;;;;;14.00;13.33;;;;;21.33;28.69;102040.32;110149;1268;18752;-51
2022/04/29 07:43:26;;;;;;;;;17.00;16.33;;;;;21.31;28.60;102042.51;110191;1268;18913;-52
2022/04/29 07:45:54;;;;;;;;;14.67;13.33;;;;;21.30;28.47;102039.97;110134;1267;18178;-51
2022/04/29 07:48:22;;;;;;;;;16.00;14.00;;;;;21.37;28.76;102039.88;110138;1267;18690;-51
2022/04/29 07:50:49;;;;;;;;;12.50;12.50;;;;;21.48;28.65;102037.92;110123;1267;18776;-51
2022/04/29 07:53:16;;;;;;;;;14.67;13.67;;;;;21.53;28.94;102038.13;110050;1267;18347;-51
2022/04/29 07:55:44;;;;;;;;;12.00;10.67;;;;;21.55;29.10;102039.08;110147;1267;18795;-51
2022/04/29 07:58:11;;;;;;;;;12.67;12.67;;;;;21.54;28.92;102034.97;110086;1267;19603;-52
2022/04/29 08:00:39;;;;;;;;;15.00;13.00;;;;;21.48;31.88;102029.34;110009;1268;18515;-51
2022/04/29 08:03:06;;;;;;;;;13.67;12.67;;;;;21.59;31.94;102030.84;110103;1267;19240;-52
2022/04/29 08:05:33;;;;;;;;;11.00;11.00;;;;;21.68;31.20;102029.05;109935;1268;22652;-52
2022/04/29 08:08:00;;;;;;;;;13.00;12.00;;;;;21.57;30.96;102029.19;110100;1267;18251;-51
2022/04/29 08:10:28;;;;;;;;;12.00;10.50;;;;;21.64;31.14;102023.77;110156;1267;18770;-51
2022/04/29 08:12:55;;;;;;;;;9.00;9.00;;;;;21.75;30.99;102017.63;110093;1267;19813;-53
2022/04/29 08:15:22;;;;;;;;;12.67;10.33;;;;;21.71;30.60;102020.20;110156;1267;18039;-52
2022/04/29 08:17:50;;;;;;;;;10.00;10.00;;;;;21.76;30.49;102017.85;110121;1267;18959;-53
2022/04/29 08:20:17;;;;;;;;;10.00;9.33;;;;;21.79;29.98;102021.39;110031;1267;20963;-50
2022/04/29 08:22:44;;;;;;;;;12.00;11.00;;;;;21.80;30.05;102018.50;110126;1267;18161;-50
2022/04/29 08:25:11;;;;;;;;;10.00;10.00;;;;;21.72;29.66;102020.23;110144;1267;22059;-52
2022/04/29 08:27:39;;;;;;;;;10.00;10.00;;;;;21.50;29.53;102022.95;110052;1267;18869;-50
2022/04/29 08:30:06;;;;;;;;;8.67;8.00;;;;;21.53;29.38;102019.01;109924;1267;18249;-52
2022/04/29 08:32:34;;;;;;;;;12.00;10.67;;;;;21.59;29.17;102013.34;109972;1267;18885;-53
2022/04/29 08:35:02;;;;;;;;;10.00;9.00;;;;;21.61;28.75;102013.11;109955;1267;18458;-50
2022/04/29 08:37:30;;;;;;;;;9.00;9.00;;;;;21.64;28.83;102011.36;110125;1267;18199;-52
2022/04/29 08:39:57;;;;;;;;;11.33;10.67;;;;;21.70;28.85;102009.92;109963;1268;18824;-51
2022/04/29 08:42:24;;;;;;;;;9.00;8.67;;;;;21.77;29.03;102009.95;110059;1267;19376;-52
2022/04/29 08:44:52;;;;;;;;;10.00;9.00;;;;;21.87;29.12;102007.84;110126;1268;19595;-51
2022/04/29 08:47:19;;;;;;;;;6.00;6.00;;;;;21.84;28.20;102010.34;110100;1267;18702;-51
2022/04/29 08:49:47;;;;;;;;;7.00;7.00;;;;;21.86;28.46;102003.40;110129;1267;18984;-52
2022/04/29 08:52:14;;;;;;;;;7.00;7.00;;;;;21.79;28.13;102002.77;109992;1268;20394;-52
2022/04/29 09:00:11;;;;;;;;;8.00;8.00;;;;;21.78;27.69;102007.44;110077;1268;18116;-55
2022/04/29 09:02:40;;;;;;;;;8.00;8.00;;;;;21.80;27.56;102010.69;110141;1267;18778;-52
2022/04/29 09:05:07;;;;;;;;;7.33;6.67;;;;;21.73;27.03;102002.90;110012;1267;18365;-51
2022/04/29 09:07:35;;;;;;;;;7.00;7.00;;;;;21.60;27.15;102004.33;110112;1267;22049;-51
2022/04/29 09:10:02;;;;;;;;;7.00;7.00;;;;;21.62;26.87;102008.20;110113;1267;21648;-50
2022/04/29 09:12:29;;;;;;;;;6.00;6.00;;;;;21.61;26.79;102005.67;110125;1268;18516;-52
2022/04/29 09:14:57;;;;;;;;;6.33;6.00;;;;;21.62;27.06;102005.23;110070;1267;18009;-54
2022/04/29 09:17:24;;;;;;;;;5.00;5.00;;;;;21.65;26.84;102005.34;110122;1267;18788;-55
2022/04/29 09:19:51;;;;;;;;;5.00;5.00;;;;;21.73;26.98;102002.30;110113;1268;21673;-53
2022/04/29 09:22:18;;;;;;;;;7.00;7.00;;;;;21.76;27.03;102002.33;110066;1268;17982;-51
2022/04/29 09:24:45;;;;;;;;;6.00;5.00;;;;;21.84;27.05;101999.96;110137;1268;18783;-52
2022/04/29 09:27:13;;;;;;;;;6.00;6.00;;;;;21.87;27.13;102001.81;110077;1267;20654;-53
2022/04/29 09:29:40;;;;;;;;;5.00;5.00;;;;;21.83;26.68;102002.64;110088;1267;18297;-52
2022/04/29 09:32:08;;;;;;;;;6.00;6.00;;;;;21.77;26.60;102000.15;110034;1267;18835;-51
2022/04/29 09:34:36;;;;;;;;;6.00;6.00;;;;;21.77;26.68;102003.17;110009;1267;20464;-53
2022/04/29 09:37:03;;;;;;;;;7.00;6.50;;;;;21.82;27.42;101999.21;110113;1267;19967;-52
2022/04/29 09:39:31;;;;;;;;;6.00;5.00;;;;;21.92;27.64;101997.55;110124;1267;18597;-52
2022/04/29 09:41:58;;;;;;;;;8.67;6.67;;;;;21.91;27.47;101997.04;109994;1268;22605;-53
2022/04/29 09:44:25;;;;;;;;;8.67;6.00;;;;;21.89;27.02;101990.36;109976;1267;17989;-52
2022/04/29 09:46:52;;;;;;;;;9.00;6.67;;;;;21.85;26.90;101989.50;109957;1268;18838;-49
2022/04/29 09:49:21;;;;;;;;;7.50;6.00;;;;;21.80;26.94;101987.97;109922;1267;19342;-52
2022/04/29 09:51:48;;;;;;;;;6.67;6.00;;;;;21.72;26.89;101992.82;110055;1267;18212;-51
2022/04/29 09:54:16;;;;;;;;;6.33;6.33;;;;;21.69;27.24;101990.95;110106;1267;22871;-52
2022/04/29 09:56:44;;;;;;;;;9.00;9.00;;;;;21.68;27.53;101989.41;110101;1266;18322;-49
2022/04/29 09:59:11;;;;;;;;;8.33;7.00;;;;;21.64;27.79;101984.52;110161;1267;17999;-51
2022/04/29 10:01:38;;;;;;;;;8.00;8.00;;;;;21.60;27.74;101985.05;109779;1267;19394;-54
2022/04/29 10:04:05;;;;;;;;;6.67;6.00;;;;;21.61;28.16;101981.34;109574;1267;18361;-51
2022/04/29 10:06:32;;;;;;;;;10.50;10.00;;;;;21.75;28.31;101983.23;110166;1267;17976;-52
2022/04/29 10:09:00;;;;;;;;;6.00;6.00;;;;;21.74;28.62;101980.54;110064;1267;22205;-56
2022/04/29 10:11:27;;;;;;;;;7.00;6.00;;;;;21.77;28.68;101979.38;109992;1267;21902;-50
2022/04/29 10:13:54;;;;;;;;;7.00;6.00;;;;;21.80;28.80;101982.11;110196;1267;18180;-52
2022/04/29 10:16:21;;;;;;;;;9.00;7.00;;;;;21.86;28.74;101980.77;110140;1267;18828;-50
2022/04/29 10:21:37;;;;;;;;;7.00;7.00;;;;;21.87;28.28;101970.75;110153;1267;17990;-52
2022/04/29 10:24:04;;;;;;;;;5.67;5.67;;;;;21.80;28.14;101970.52;110136;1268;18735;-52
2022/04/29 10:26:31;;;;;;;;;6.00;6.00;;;;;21.81;28.07;101972.16;110146;1267;18341;-52
2022/04/29 10:28:58;;;;;;;;;7.00;7.00;;;;;21.78;27.43;101975.09;110158;1268;21157;-54
2022/04/29 10:31:26;;;;;;;;;5.00;5.00;;;;;21.74;27.58;101971.80;110057;1267;18731;-52
2022/04/29 10:33:53;;;;;;;;;6.00;6.00;;;;;21.76;27.39;101967.61;110140;1267;18302;-53
2022/04/29 10:36:20;;;;;;;;;5.67;5.67;;;;;21.80;27.45;101967.60;110082;1267;18026;-51
2022/04/29 10:38:47;;;;;;;;;9.00;7.00;;;;;21.84;27.41;101968.45;109949;1268;21689;-52
2022/04/29 10:41:15;;;;;;;;;7.00;7.00;;;;;21.80;26.98;101964.52;110103;1267;18298;-52
2022/04/29 10:43:42;;;;;;;;;6.00;5.50;;;;;21.75;26.83;101962.49;110190;1267;18907;-52
2022/04/29 10:46:09;;;;;;;;;5.33;5.33;;;;;21.73;26.72;101955.36;110136;1267;19201;-51
2022/04/29 10:48:37;;;;;;;;;6.00;5.33;;;;;21.72;26.65;101958.73;110138;1267;19299;-50
2022/04/29 10:51:04;;;;;;;;;6.67;6.00;;;;;21.75;26.88;101960.68;110141;1267;18006;-52
2022/04/29 10:53:31;;;;;;;;;5.00;5.00;;;;;21.67;26.71;101957.45;110113;1267;18591;-50
2022/04/29 10:55:58;;;;;;;;;6.00;6.00;;;;;21.63;26.77;101959.90;110204;1268;18255;-52
2022/04/29 10:58:26;;;;;;;;;6.00;6.00;;;;;21.63;27.19;101953.89;110014;1267;17973;-50
2022/04/29 11:00:53;;;;;;;;;8.50;6.00;;;;;21.56;27.28;101953.63;109884;1267;18998;-51
2022/04/29 11:03:20;;;;;;;;;9.00;8.00;;;;;21.55;27.42;101954.84;110039;1267;18311;-52
2022/04/29 11:05:47;;;;;;;;;10.00;9.33;;;;;21.56;27.90;101955.95;109970;1267;18317;-50
2022/04/29 11:08:15;;;;;;;;;9.00;8.67;;;;;21.56;27.84;101949.73;110029;1267;18772;-53
2022/04/29 11:10:42;;;;;;;;;8.67;8.00;;;;;21.52;28.10;101951.61;110088;1267;18995;-50
2022/04/29 11:13:09;;;;;;;;;10.00;8.00;;;;;21.46;28.03;101952.39;110167;1267;20648;-55
2022/04/29 11:15:36;;;;;;;;;8.00;6.00;;;;;21.42;28.29;101948.62;110153;1267;19512;-52
2022/04/29 11:18:04;;;;;;;;;9.00;9.00;;;;;21.30;28.20;101944.89;110140;1267;19553;-51
2022/04/29 11:20:32;;;;;;;;;5.33;5.33;;;;;21.25;28.12;101943.38;110158;1267;18602;-51
2022/04/29 11:25:40;;;;;;;;;7.33;6.00;;;;;21.26;28.07;101943.65;109113;1273;18617;-52
2022/04/29 11:28:07;;;;;;;;;6.00;6.00;;;;;21.21;28.35;101938.33;109243;1271;19513;-50
2022/04/29 11:30:34;;;;;;;;;6.00;5.00;;;;;21.22;28.46;101938.44;109282;1271;20973;-52